EmailTwitter


Observations de surface / France / LFMP (07747)

Régions: Québec | Canada | États-Unis | Europe | France | UK | Ailleurs
Station
Affichage
Infos & localisation pour LFMP (07747) | Aide pour décoder les METARs

Observations prises le 2018-10-15 à 15H30 UTC à PERPIGNAN/RIVESA, FR (LFMP)

Etat du ciel: couvert.

Obstacle(s) à la visibilité: pluie modérée.

Température: 19.0 Celsius

Point de rosée: 14.0 Celsius

Humidité relative: 73%

Vents: Variable à 4 km/h ou 2 noeuds.

Pression au niveau moyen de la mer: 100.90 kilopascals.

Visibilité horizontale: 6.21 milles terrestres ou 9.94 kilomètres.

Hauteur du plafond: 823 mètres ( 2700 pieds ).

Observation METAR:

LFMP 151530Z AUTO VRB02KT 9999 RA OVC027/// ///TCU 19/14 Q1009 TEMPO VRB15G25KT

BKN010TCU=